Details From MUVR - Juan Gualberto Gomez Intl
To MYNN - Nassau Intl
Flight Number -
Tags Decoded
Created
Modified
Stats Distance 249 nm / 461 km
Max Altitude 0 ft / 0 m
Waypoints 4
Social Downloads 4
Likes 0
Share VATSIM

Download

Looking for another format? Having issues loading an existing format? Contact us
Advertisement - Login to hide

Notes

Decoded

Route

MUVR TANIA SANNS MYNN

ID Type Via Altitude Latitude Longitude Leg Dist Tot Dist Heading (true) Name
O MUVR APT - 0 ft / 0 m 23.02551˚ -81.44937˚ - 0 nm - -
TANIA FIX - 0 ft / 0 m 24.03008˚ -79.52758˚ 121 nm 121 nm 60° / 61° -
SANNS FIX - 0 ft / 0 m 24.79267˚ -77.94353˚ 97 nm 219 nm 62° / 62° -
O MYNN APT - 0 ft / 0 m 25.03595˚ -77.48200˚ 29 nm 248 nm 60° / 60° -

Altitude Profile

Advertisement - Login to hide

Weather


0- 5 10 15 20 25 30 35+ Temperature / ° C

Clouds and Precipitation
Forecast for 2017-12-13 12:00 UTC. Updated 16 minutes ago

Ground ~20,000 ft ~40,000 ft Winds

MUVR

Details ICAO MUVR (VRA)
Name JUAN GUALBERTO GOMEZ INTL
Region Cuba
Timezone America/Havana (UTC-5.0)
Stats Elevation 209 ft / 64 m (AMSL)
Location 23.034439° -81.435269°
Runways 1
Magnetic Variation 5.517° W

METAR

MUVR 130650Z 24004KT 210V270 9000 FEW030 17/14 Q1017

Decode

TAF

Not found

Departure Runways

ID Width Length Bearing (true) Bearing (mag) Surface Threshold Offset Overrun Length
06 148 ft / 45 m 11,494 ft / 3,503 m 55.47° 60.99° Asphalt 0 ft / 0 m 197 ft / 60 m
24 148 ft / 45 m 11,494 ft / 3,503 m 235.48° 241.00° Asphalt 0 ft / 0 m 197 ft / 60 m

MYNN

Details ICAO MYNN (NAS)
Name Nassau Intl
Region Bahamas
Timezone America/Nassau (UTC-5.0)
Stats Elevation 16 ft / 5 m (AMSL)
Location 25.038596° -77.466621°
Runways 2
Magnetic Variation 8.218° W

METAR

MYNN 130700Z 26011KT 9999 SCT020 21/16 A2996

Decode

TAF

TAF MYNN 130520Z 1306/1406 24003KT 9999 FEW022 BECMG 1314/1316 33010KT

Decode

Destination Runways

ID Width Length Bearing (true) Bearing (mag) Surface Threshold Offset Overrun Length
09 151 ft / 46 m 8,311 ft / 2,533 m 89.62° 97.84° Asphalt 0 ft / 0 m 0 ft / 0 m
14 151 ft / 46 m 11,364 ft / 3,464 m 134.83° 143.05° Asphalt 226 ft / 69 m 0 ft / 0 m
27 151 ft / 46 m 8,311 ft / 2,533 m 269.64° 277.86° Asphalt 0 ft / 0 m 0 ft / 0 m
32 151 ft / 46 m 11,364 ft / 3,464 m 314.84° 323.06° Asphalt 0 ft / 0 m 0 ft / 0 m

Approach Navaids

Runway Type Ident Frequency Range Bearing (true) Bearing (mag) Slope Elevation
14 Localiser IZQA 110.10 MHz 18 nm / 33 km 134.83° 143.05° - 7 ft / 2 m (AMSL)
14 Glidescope IZQA 110.10 MHz 10 nm / 19 km 134.83° 143.05° 3.00° 8 ft / 2 m (AMSL)